Time;durP1;ratioP1;P1;durP2;ratioP2;P2;SDS_P1;SDS_P2;PMS_P1;PMS_P2;Temp;Humidity;BMP_temperature;BMP_pressure;BME280_temperature;BME280_humidity;BME280_pressure;Samples;Min_cycle;Max_cycle;Signal;HPM_P1;HPM_P2
2021/07/23 00:00:11;;;;;;;23.80;12.20;;;19.30;99.90;;;;;;5078732;28;20453;-80
2021/07/23 00:02:39;;;;;;;19.70;13.20;;;19.30;99.90;;;;;;5076571;28;20473;-80
2021/07/23 00:05:06;;;;;;;15.40;12.60;;;19.20;99.90;;;;;;5077113;28;20465;-79
2021/07/23 00:07:33;;;;;;;14.10;11.53;;;19.10;99.90;;;;;;5079173;28;20445;-81
2021/07/23 00:09:59;;;;;;;16.83;12.87;;;19.10;99.90;;;;;;5088718;28;20453;-80
2021/07/23 00:12:26;;;;;;;18.40;13.67;;;19.10;99.90;;;;;;5086703;28;20445;-79
2021/07/23 00:14:52;;;;;;;20.83;15.97;;;19.10;99.90;;;;;;5087085;28;20481;-79
2021/07/23 00:17:19;;;;;;;20.90;13.13;;;19.00;99.90;;;;;;5083681;28;20498;-80
2021/07/23 00:19:47;;;;;;;14.10;10.90;;;18.80;99.90;;;;;;5080004;28;20480;-80
2021/07/23 00:22:13;;;;;;;16.20;11.80;;;18.90;99.90;;;;;;5076452;28;20964;-80
2021/07/23 00:24:40;;;;;;;15.10;12.20;;;18.90;99.90;;;;;;5076589;28;20496;-80
2021/07/23 00:27:06;;;;;;;18.97;13.20;;;18.80;99.90;;;;;;5076363;28;20464;-80
2021/07/23 00:29:33;;;;;;;14.57;12.70;;;18.70;99.90;;;;;;5076375;28;20441;-80
2021/07/23 00:31:59;;;;;;;15.93;12.47;;;18.60;99.90;;;;;;5076670;28;20484;-79
2021/07/23 00:34:26;;;;;;;18.47;13.80;;;18.50;99.90;;;;;;5076289;28;21014;-80
2021/07/23 00:36:54;;;;;;;17.10;13.47;;;18.50;99.90;;;;;;5077052;28;20663;-80
2021/07/23 00:39:20;;;;;;;14.90;12.53;;;18.50;99.90;;;;;;5077157;28;20503;-80
2021/07/23 00:41:47;;;;;;;19.90;12.87;;;18.40;99.90;;;;;;5076542;28;20445;-81
2021/07/23 00:44:14;;;;;;;20.87;15.70;;;18.30;99.90;;;;;;5077164;28;20549;-81
2021/07/23 00:46:42;;;;;;;19.37;14.57;;;18.30;99.90;;;;;;5079445;28;20449;-79
2021/07/23 00:49:09;;;;;;;17.13;14.63;;;18.30;99.90;;;;;;5083915;28;20441;-79
2021/07/23 00:51:35;;;;;;;24.10;17.70;;;18.30;99.90;;;;;;5084733;28;20920;-79
2021/07/23 00:54:05;;;;;;;22.90;17.47;;;18.20;99.90;;;;;;5085788;28;20493;-80
2021/07/23 00:56:32;;;;;;;22.63;17.20;;;18.30;99.90;;;;;;5083549;28;20441;-80
2021/07/23 00:58:59;;;;;;;21.33;16.03;;;18.30;99.90;;;;;;5083357;28;20452;-80
2021/07/23 01:01:26;;;;;;;20.60;16.57;;;18.20;99.90;;;;;;5084325;28;20421;-79
2021/07/23 01:03:53;;;;;;;26.67;16.90;;;18.30;99.90;;;;;;5087004;28;20441;-77
2021/07/23 01:06:19;;;;;;;21.20;16.83;;;18.30;99.90;;;;;;5088050;28;20449;-80
2021/07/23 01:08:46;;;;;;;23.33;15.73;;;18.30;99.90;;;;;;5085207;28;20479;-80
2021/07/23 01:11:14;;;;;;;20.33;15.13;;;18.20;99.90;;;;;;5085115;28;20446;-80
2021/07/23 01:13:42;;;;;;;25.83;16.47;;;18.30;99.90;;;;;;5081984;28;20446;-79
2021/07/23 01:16:09;;;;;;;20.90;16.07;;;18.20;99.90;;;;;;5080594;28;20481;-80
2021/07/23 01:18:36;;;;;;;21.27;15.53;;;18.10;99.90;;;;;;5078958;28;20445;-79
2021/07/23 01:21:03;;;;;;;24.43;15.37;;;18.00;99.90;;;;;;5077679;28;20449;-80
2021/07/23 01:23:32;;;;;;;22.03;15.00;;;18.20;99.90;;;;;;5076764;28;20928;-81
2021/07/23 01:25:59;;;;;;;21.20;14.90;;;17.90;99.90;;;;;;5087318;28;20461;-79
2021/07/23 01:28:26;;;;;;;18.70;13.63;;;17.90;99.90;;;;;;5081789;28;20498;-80
2021/07/23 01:30:53;;;;;;;17.50;13.10;;;17.80;99.90;;;;;;5081262;28;20512;-80
2021/07/23 01:33:19;;;;;;;20.57;13.67;;;17.80;99.90;;;;;;5081071;28;20453;-80
2021/07/23 01:35:46;;;;;;;16.23;13.77;;;17.80;99.90;;;;;;5076075;28;20910;-78
2021/07/23 01:38:14;;;;;;;19.97;15.07;;;17.80;99.90;;;;;;5076066;28;20481;-80
2021/07/23 01:40:42;;;;;;;18.17;13.53;;;17.80;99.90;;;;;;5075816;28;20445;-79
2021/07/23 01:43:09;;;;;;;19.10;13.60;;;17.80;99.90;;;;;;5076462;28;20473;-81
2021/07/23 01:45:35;;;;;;;16.17;14.47;;;17.80;99.90;;;;;;5076802;28;20484;-79
2021/07/23 01:48:02;;;;;;;18.53;14.20;;;17.80;99.90;;;;;;5075768;28;20480;-80
2021/07/23 01:50:29;;;;;;;18.63;14.17;;;17.80;99.90;;;;;;5076495;28;20450;-79
2021/07/23 01:52:55;;;;;;;19.20;13.00;;;17.80;99.90;;;;;;5077684;28;20468;-79
2021/07/23 01:55:22;;;;;;;18.80;14.03;;;17.80;99.90;;;;;;5083864;28;20850;-79
2021/07/23 01:57:50;;;;;;;20.70;15.40;;;17.70;99.90;;;;;;5084726;28;20441;-79
2021/07/23 02:00:17;;;;;;;20.67;14.60;;;17.80;99.90;;;;;;5083287;28;20467;-79
2021/07/23 02:02:44;;;;;;;18.17;13.30;;;17.80;99.90;;;;;;5076236;28;20499;-79
2021/07/23 02:05:11;;;;;;;19.80;16.50;;;17.80;99.90;;;;;;5083600;28;20465;-79
2021/07/23 02:07:38;;;;;;;24.50;16.03;;;17.70;99.90;;;;;;5082606;28;20449;-80
2021/07/23 02:10:07;;;;;;;17.30;15.23;;;17.60;99.90;;;;;;5076269;28;20449;-80
2021/07/23 02:12:33;;;;;;;19.57;13.67;;;17.50;99.90;;;;;;5075470;28;20944;-78
2021/07/23 02:15:01;;;;;;;18.60;14.90;;;17.50;99.90;;;;;;5083913;28;20485;-79
2021/07/23 02:17:28;;;;;;;22.07;15.27;;;17.50;99.90;;;;;;5083142;28;20452;-79
2021/07/23 02:19:55;;;;;;;18.30;13.70;;;17.50;99.90;;;;;;5079685;28;20467;-80
2021/07/23 02:22:21;;;;;;;20.13;14.53;;;17.50;99.90;;;;;;5075218;28;20476;-80
2021/07/23 02:24:48;;;;;;;22.50;14.80;;;17.50;99.90;;;;;;5075141;28;20493;-81
2021/07/23 02:27:14;;;;;;;19.53;15.70;;;17.60;99.90;;;;;;5074749;28;20445;-80
2021/07/23 02:29:41;;;;;;;18.30;14.73;;;17.60;99.90;;;;;;5074749;28;20481;-80
2021/07/23 02:32:09;;;;;;;16.40;14.07;;;17.60;99.90;;;;;;5075185;28;20453;-80
2021/07/23 02:34:35;;;;;;;24.33;16.63;;;17.50;99.90;;;;;;5075309;28;20533;-81
2021/07/23 02:37:02;;;;;;;23.80;14.90;;;17.50;99.90;;;;;;5077227;28;20518;-80
2021/07/23 02:39:28;;;;;;;18.57;14.90;;;17.50;99.90;;;;;;5078712;28;20947;-80
2021/07/23 02:41:55;;;;;;;16.53;14.30;;;17.50;99.90;;;;;;5077954;28;20985;-80
2021/07/23 02:44:22;;;;;;;19.53;13.97;;;17.50;99.90;;;;;;5077477;28;20501;-78
2021/07/23 02:46:48;;;;;;;18.80;15.20;;;17.50;99.90;;;;;;5081687;28;20483;-80
2021/07/23 02:49:16;;;;;;;19.60;15.53;;;17.50;99.90;;;;;;5079147;28;20511;-80
2021/07/23 02:51:42;;;;;;;19.40;14.27;;;17.60;99.90;;;;;;5078151;28;20488;-79
2021/07/23 02:54:09;;;;;;;19.23;16.00;;;17.40;99.90;;;;;;5077672;28;20460;-78
2021/07/23 02:56:36;;;;;;;18.63;15.17;;;17.40;99.90;;;;;;5077407;28;20895;-78
2021/07/23 02:59:02;;;;;;;20.40;15.57;;;17.30;99.90;;;;;;5077841;28;20472;-80
2021/07/23 03:01:29;;;;;;;17.80;13.63;;;17.30;99.90;;;;;;5078514;28;20876;-82
2021/07/23 03:03:55;;;;;;;20.00;15.77;;;17.20;99.90;;;;;;5078357;28;20543;-80
2021/07/23 03:06:23;;;;;;;19.70;14.30;;;17.30;99.90;;;;;;5078330;28;20473;-81
2021/07/23 03:08:50;;;;;;;26.70;15.70;;;17.30;99.90;;;;;;5077615;28;20484;-78
2021/07/23 03:11:16;;;;;;;22.98;14.77;;;17.40;99.90;;;;;;5077143;28;20483;-78
2021/07/23 03:13:43;;;;;;;18.57;13.87;;;17.40;99.90;;;;;;5077013;28;20205;-78
2021/07/23 03:16:14;;;;;;;23.20;15.93;;;17.40;99.90;;;;;;5077303;28;20607;-78
2021/07/23 03:18:40;;;;;;;19.70;15.03;;;17.40;99.90;;;;;;5080569;28;20483;-78
2021/07/23 03:21:07;;;;;;;16.80;14.97;;;17.50;99.90;;;;;;5083416;28;20456;-77
2021/07/23 03:23:35;;;;;;;19.03;14.97;;;17.50;99.90;;;;;;5082237;28;20477;-78
2021/07/23 03:26:06;;;;;;;22.30;13.93;;;17.50;99.90;;;;;;5077832;28;20869;-79
2021/07/23 03:28:33;;;;;;;21.83;14.47;;;17.50;99.90;;;;;;5077227;28;20505;-78
2021/07/23 03:31:00;;;;;;;20.77;14.43;;;17.50;99.90;;;;;;5079812;28;20541;-78
2021/07/23 03:33:26;;;;;;;19.17;15.07;;;17.60;99.90;;;;;;5080971;28;20456;-78
2021/07/23 03:35:53;;;;;;;18.77;14.40;;;17.60;99.90;;;;;;5082095;28;20981;-78
2021/07/23 03:38:19;;;;;;;19.23;15.67;;;17.50;99.90;;;;;;5079253;28;20449;-78
2021/07/23 03:40:47;;;;;;;18.03;14.27;;;17.40;99.90;;;;;;5078042;28;20498;-78
2021/07/23 03:43:14;;;;;;;24.30;14.80;;;17.40;99.90;;;;;;5076961;28;20479;-78
2021/07/23 03:45:41;;;;;;;20.40;15.87;;;17.50;99.90;;;;;;5077134;28;20967;-80
2021/07/23 03:48:08;;;;;;;17.93;14.87;;;17.50;99.90;;;;;;5075493;28;20983;-79
2021/07/23 03:50:34;;;;;;;21.50;14.60;;;17.50;99.90;;;;;;5076667;28;20484;-79
2021/07/23 03:53:01;;;;;;;19.47;15.10;;;17.50;99.90;;;;;;5076781;28;20453;-79
2021/07/23 03:55:28;;;;;;;19.23;13.87;;;17.50;99.90;;;;;;5076895;28;20516;-78
2021/07/23 03:57:55;;;;;;;17.77;13.80;;;17.50;99.90;;;;;;5076510;28;20547;-79
2021/07/23 04:00:23;;;;;;;17.90;13.70;;;17.50;99.90;;;;;;5076547;28;20815;-79
2021/07/23 04:02:49;;;;;;;32.00;16.57;;;17.60;99.90;;;;;;5077090;28;20540;-79
2021/07/23 04:05:16;;;;;;;20.50;14.63;;;17.60;99.90;;;;;;5076350;28;20465;-79
2021/07/23 04:07:43;;;;;;;25.57;14.17;;;17.70;99.90;;;;;;5076450;28;20790;-79
2021/07/23 04:10:11;;;;;;;19.33;14.80;;;17.70;99.90;;;;;;5076206;28;20956;-79
2021/07/23 04:12:37;;;;;;;18.57;14.90;;;17.70;99.90;;;;;;5076505;28;20445;-79
2021/07/23 04:15:09;;;;;;;19.70;14.83;;;17.80;99.90;;;;;;5076207;28;20461;-79
2021/07/23 04:17:36;;;;;;;17.53;14.80;;;17.80;99.90;;;;;;5076492;28;20433;-79
2021/07/23 04:20:03;;;;;;;19.50;15.63;;;17.90;99.90;;;;;;5076287;28;20468;-79
2021/07/23 04:22:30;;;;;;;29.30;21.27;;;17.90;99.90;;;;;;5076337;28;20438;-79
2021/07/23 04:24:56;;;;;;;19.00;15.30;;;18.00;99.90;;;;;;5075045;28;20461;-79
2021/07/23 04:27:23;;;;;;;20.43;15.90;;;18.00;99.90;;;;;;5075852;28;20537;-79
2021/07/23 04:29:49;;;;;;;21.77;15.57;;;18.00;99.90;;;;;;5075925;28;20479;-79
2021/07/23 04:32:17;;;;;;;18.00;14.40;;;18.00;99.90;;;;;;5075955;28;20509;-79
2021/07/23 04:34:44;;;;;;;20.30;15.70;;;18.10;99.90;;;;;;5076762;28;20500;-78
2021/07/23 04:37:10;;;;;;;20.03;15.00;;;18.10;99.90;;;;;;5080201;28;20505;-78
2021/07/23 04:39:37;;;;;;;20.93;15.00;;;18.10;99.90;;;;;;5080265;28;20952;-78
2021/07/23 04:42:05;;;;;;;21.20;16.73;;;18.10;99.90;;;;;;5078030;28;20473;-79
2021/07/23 04:44:32;;;;;;;20.40;15.97;;;18.10;99.90;;;;;;5080245;28;20471;-78
2021/07/23 04:47:00;;;;;;;22.67;15.93;;;18.10;99.90;;;;;;5080947;28;20477;-78
2021/07/23 04:49:28;;;;;;;21.07;15.00;;;18.20;99.90;;;;;;5080742;28;20445;-77
2021/07/23 04:51:54;;;;;;;20.67;14.83;;;18.20;99.90;;;;;;5076555;28;20449;-78
2021/07/23 04:54:21;;;;;;;19.20;15.83;;;18.20;99.90;;;;;;5075407;28;20508;-79
2021/07/23 04:56:51;;;;;;;19.40;16.37;;;18.20;99.90;;;;;;5076788;28;20487;-78
2021/07/23 04:59:17;;;;;;;18.77;15.87;;;18.20;99.90;;;;;;5075450;28;20952;-78
2021/07/23 05:01:44;;;;;;;22.27;16.30;;;18.20;99.90;;;;;;5075145;28;20886;-78
2021/07/23 05:04:12;;;;;;;22.10;15.23;;;18.50;99.90;;;;;;5074453;28;20476;-78
2021/07/23 05:06:40;;;;;;;19.20;15.80;;;18.20;99.90;;;;;;5075779;28;20441;-79
2021/07/23 05:09:07;;;;;;;21.00;16.20;;;18.20;99.90;;;;;;5075464;28;20955;-79
2021/07/23 05:11:35;;;;;;;21.60;16.90;;;18.30;99.90;;;;;;5075363;28;20483;-79
2021/07/23 05:14:02;;;;;;;20.70;16.80;;;18.30;99.90;;;;;;5075588;28;20450;-78
2021/07/23 05:16:28;;;;;;;19.87;16.73;;;18.30;99.90;;;;;;5077599;28;20477;-77
2021/07/23 05:18:55;;;;;;;22.40;17.73;;;18.30;99.90;;;;;;5079970;28;20495;-78
2021/07/23 05:21:22;;;;;;;23.23;17.13;;;18.40;99.90;;;;;;5080860;28;20479;-77
2021/07/23 05:23:50;;;;;;;23.03;17.40;;;18.40;99.90;;;;;;5083112;28;20460;-77
2021/07/23 05:26:17;;;;;;;21.00;16.57;;;18.50;99.90;;;;;;5077208;28;20442;-78
2021/07/23 05:28:44;;;;;;;25.43;16.63;;;18.60;99.90;;;;;;5080948;28;20445;-78
2021/07/23 05:31:10;;;;;;;24.13;16.30;;;18.70;99.90;;;;;;5084599;28;20895;-77
2021/07/23 05:33:37;;;;;;;20.60;16.90;;;18.70;99.90;;;;;;5081758;28;20441;-78
2021/07/23 05:36:04;;;;;;;24.43;17.83;;;18.70;99.90;;;;;;5088648;22;20494;-80
2021/07/23 05:38:31;;;;;;;22.53;17.10;;;18.80;99.90;;;;;;5056258;28;20507;-81
2021/07/23 05:41:06;;;;;;;24.67;16.80;;;18.80;99.90;;;;;;5056351;28;20520;-80
2021/07/23 05:43:33;;;;;;;21.23;16.87;;;18.90;99.90;;;;;;5056063;28;20924;-79
2021/07/23 05:45:59;;;;;;;20.40;17.23;;;18.90;99.90;;;;;;5055933;28;20505;-80
2021/07/23 05:48:26;;;;;;;27.33;18.67;;;18.80;99.90;;;;;;5056620;28;20481;-80
2021/07/23 05:50:52;;;;;;;21.73;17.27;;;18.80;99.90;;;;;;5056691;28;20474;-80
2021/07/23 05:53:19;;;;;;;27.73;16.63;;;18.90;99.90;;;;;;5056255;28;20450;-80
2021/07/23 05:55:45;;;;;;;23.27;17.70;;;18.90;99.90;;;;;;5056781;28;20533;-80
2021/07/23 05:58:16;;;;;;;24.43;18.47;;;19.00;99.90;;;;;;5059633;28;20469;-78
2021/07/23 06:00:43;;;;;;;29.40;16.77;;;19.00;99.90;;;;;;5070623;28;20494;-78
2021/07/23 06:03:10;;;;;;;24.47;16.60;;;19.20;99.90;;;;;;5069362;28;20480;-78
2021/07/23 06:05:36;;;;;;;23.30;15.97;;;19.20;99.90;;;;;;5061170;28;20466;-79
2021/07/23 06:08:04;;;;;;;22.23;16.10;;;19.20;99.90;;;;;;5056798;28;20457;-80
2021/07/23 06:10:30;;;;;;;23.93;17.17;;;19.20;99.90;;;;;;5058366;28;20465;-78
2021/07/23 06:12:57;;;;;;;18.33;15.87;;;19.20;99.90;;;;;;5067576;28;20446;-77
2021/07/23 06:15:25;;;;;;;22.50;16.87;;;19.30;99.90;;;;;;5064307;28;20466;-80
2021/07/23 06:17:51;;;;;;;27.77;16.67;;;19.40;99.90;;;;;;5063916;28;20446;-79
2021/07/23 06:20:18;;;;;;;21.90;15.93;;;19.40;99.90;;;;;;5061786;28;20474;-80
2021/07/23 06:22:44;;;;;;;20.90;15.53;;;19.50;99.90;;;;;;5059648;28;20450;-80
2021/07/23 06:25:12;;;;;;;20.40;15.93;;;19.50;99.90;;;;;;5060233;28;20461;-80
2021/07/23 06:27:38;;;;;;;28.90;17.17;;;19.50;99.90;;;;;;5060817;28;20442;-80
2021/07/23 06:30:06;;;;;;;24.50;18.27;;;19.50;99.90;;;;;;5059590;28;20473;-80
2021/07/23 06:32:34;;;;;;;23.60;17.17;;;19.40;99.90;;;;;;5059150;28;20969;-80
2021/07/23 06:35:00;;;;;;;27.80;17.87;;;19.60;99.90;;;;;;5060031;28;20478;-80
2021/07/23 06:37:27;;;;;;;22.87;16.73;;;19.60;99.90;;;;;;5060116;28;20543;-80
2021/07/23 06:39:53;;;;;;;21.00;16.60;;;19.50;99.90;;;;;;5067408;28;20446;-79
2021/07/23 06:42:20;;;;;;;27.00;17.23;;;19.60;99.90;;;;;;5068535;28;20430;-79
2021/07/23 06:44:47;;;;;;;26.37;16.93;;;19.70;99.90;;;;;;5064435;28;20462;-80
2021/07/23 06:47:14;;;;;;;19.07;14.17;;;19.80;99.90;;;;;;5065786;28;20452;-80
2021/07/23 06:49:42;;;;;;;19.50;15.13;;;19.80;99.90;;;;;;5062005;28;20457;-80
2021/07/23 06:52:09;;;;;;;15.27;13.67;;;19.90;99.90;;;;;;5067061;28;21014;-79
2021/07/23 06:54:35;;;;;;;17.47;14.13;;;20.10;99.90;;;;;;5064305;28;20464;-80
2021/07/23 06:57:04;;;;;;;16.90;12.87;;;20.20;99.90;;;;;;5062180;28;20478;-80
2021/07/23 06:59:31;;;;;;;19.70;14.00;;;20.30;99.90;;;;;;5062669;28;20450;-80
2021/07/23 07:01:59;;;;;;;20.37;14.93;;;20.30;99.90;;;;;;5062824;28;20446;-79
2021/07/23 07:04:25;;;;;;;19.13;15.10;;;20.50;99.90;;;;;;5059987;28;20451;-80
2021/07/23 07:06:55;;;;;;;20.60;14.50;;;20.60;99.90;;;;;;5059880;28;20968;-80
2021/07/23 07:09:22;;;;;;;16.00;13.43;;;20.60;99.90;;;;;;5064528;28;20510;-80
2021/07/23 07:11:49;;;;;;;15.60;12.77;;;20.70;99.90;;;;;;5062448;28;20481;-80
2021/07/23 07:14:16;;;;;;;14.70;13.00;;;20.60;99.90;;;;;;5064443;28;20473;-80
2021/07/23 07:16:42;;;;;;;22.93;14.40;;;20.60;99.90;;;;;;5067386;28;20458;-80
2021/07/23 07:19:09;;;;;;;15.83;11.97;;;20.60;99.90;;;;;;5068095;28;20474;-81
2021/07/23 07:21:35;;;;;;;12.83;10.70;;;20.70;99.90;;;;;;5063957;28;20453;-80
2021/07/23 07:24:04;;;;;;;11.80;9.40;;;20.70;99.90;;;;;;5061323;28;20890;-80
2021/07/23 07:26:31;;;;;;;16.03;10.20;;;20.70;99.90;;;;;;5062743;28;20466;-81
2021/07/23 07:28:57;;;;;;;14.07;11.23;;;20.80;99.90;;;;;;5061590;28;20500;-80
2021/07/23 07:31:24;;;;;;;15.20;10.33;;;20.90;99.90;;;;;;5065147;28;20473;-79
2021/07/23 07:33:50;;;;;;;13.40;11.00;;;20.90;99.90;;;;;;5061476;28;20823;-80
2021/07/23 07:36:18;;;;;;;18.13;11.27;;;20.70;99.90;;;;;;5060694;28;20509;-80
2021/07/23 07:38:44;;;;;;;13.67;11.00;;;20.80;99.90;;;;;;5060397;28;20965;-80
2021/07/23 07:41:16;;;;;;;20.10;9.33;;;20.80;99.90;;;;;;5062635;28;20487;-78
2021/07/23 07:43:42;;;;;;;10.60;8.50;;;20.90;99.90;;;;;;5072314;28;20426;-78
2021/07/23 07:46:09;;;;;;;25.00;17.90;;;20.90;99.90;;;;;;5063401;28;20487;-80
2021/07/23 07:48:36;;;;;;;12.50;7.47;;;21.00;99.90;;;;;;5060855;28;20468;-80
2021/07/23 07:51:02;;;;;;;16.37;9.00;;;21.00;99.90;;;;;;5060454;28;20929;-81
2021/07/23 07:53:29;;;;;;;11.70;9.20;;;21.10;99.90;;;;;;5059923;28;20446;-79
2021/07/23 07:55:56;;;;;;;9.37;8.13;;;21.10;99.90;;;;;;5059664;28;20504;-80
2021/07/23 07:58:23;;;;;;;14.27;9.47;;;21.10;99.90;;;;;;5067092;28;20480;-78
2021/07/23 08:00:50;;;;;;;10.50;7.90;;;21.10;99.90;;;;;;5068525;28;20446;-79
2021/07/23 08:03:16;;;;;;;10.60;9.47;;;21.10;99.90;;;;;;5063482;28;20514;-79
2021/07/23 08:05:43;;;;;;;9.93;8.93;;;21.00;99.90;;;;;;5062293;28;20466;-80
2021/07/23 08:08:11;;;;;;;9.97;8.43;;;21.20;99.90;;;;;;5061732;28;20545;-79
2021/07/23 08:10:45;;;;;;;10.30;9.30;;;21.30;99.90;;;;;;5063417;28;20508;-80
2021/07/23 08:13:11;;;;;;;12.10;9.90;;;21.20;99.90;;;;;;5065341;28;20496;-79
2021/07/23 08:15:40;;;;;;;11.23;10.03;;;21.20;99.90;;;;;;5063502;28;20223;-79
2021/07/23 08:18:08;;;;;;;12.83;9.43;;;21.20;99.90;;;;;;5060830;28;20841;-80
2021/07/23 08:20:37;;;;;;;10.60;8.93;;;21.20;99.90;;;;;;5059300;28;20802;-79
2021/07/23 08:23:05;;;;;;;14.40;9.60;;;21.20;99.90;;;;;;5058636;28;20468;-78
2021/07/23 08:25:32;;;;;;;25.00;8.90;;;21.30;99.90;;;;;;5060854;28;20466;-79
2021/07/23 08:27:58;;;;;;;11.23;9.00;;;21.30;99.90;;;;;;5066831;28;20443;-79
2021/07/23 08:30:25;;;;;;;9.70;8.30;;;21.40;99.90;;;;;;5066447;28;20449;-78
2021/07/23 08:32:53;;;;;;;12.07;9.23;;;21.30;99.90;;;;;;5065236;28;20450;-79
2021/07/23 08:35:20;;;;;;;12.60;9.60;;;21.40;99.90;;;;;;5060599;28;20486;-79
2021/07/23 08:37:47;;;;;;;10.30;8.63;;;21.40;99.90;;;;;;5060379;28;20478;-79
2021/07/23 08:40:14;;;;;;;15.00;9.90;;;21.60;99.90;;;;;;5059811;28;20449;-80
2021/07/23 08:42:40;;;;;;;9.90;8.67;;;21.50;99.90;;;;;;5060362;28;20454;-80
2021/07/23 08:45:08;;;;;;;15.60;9.50;;;21.50;99.90;;;;;;5059931;28;20470;-79
2021/07/23 08:47:35;;;;;;;11.40;8.80;;;21.50;99.90;;;;;;5061456;28;20450;-78
2021/07/23 08:50:05;;;;;;;12.97;9.10;;;21.60;99.90;;;;;;5060522;28;20485;-78
2021/07/23 08:52:39;;;;;;;10.53;8.90;;;21.80;99.90;;;;;;5066614;28;20447;-80
2021/07/23 08:55:09;;;;;;;12.37;8.97;;;22.00;99.90;;;;;;5067056;28;20482;-79
2021/07/23 08:57:35;;;;;;;8.47;7.67;;;22.20;99.90;;;;;;5060041;28;20512;-79
2021/07/23 09:00:06;;;;;;;15.50;8.50;;;22.00;99.90;;;;;;5064948;28;20476;-79
2021/07/23 09:02:50;;;;;;;16.37;9.73;;;22.00;99.90;;;;;;5066941;28;20439;-78
2021/07/23 09:05:19;;;;;;;11.10;9.63;;;22.00;99.90;;;;;;5069230;28;20462;-79
2021/07/23 09:07:47;;;;;;;10.80;8.90;;;22.20;99.90;;;;;;5067507;28;20434;-79
2021/07/23 09:10:22;;;;;;;10.67;9.40;;;22.30;99.90;;;;;;5068782;28;20469;-78
2021/07/23 09:12:51;;;;;;;11.93;8.77;;;22.30;99.90;;;;;;5062922;28;20436;-80
2021/07/23 09:15:25;;;;;;;12.63;9.57;;;22.20;99.90;;;;;;5058276;28;20489;-79
2021/07/23 09:17:53;;;;;;;10.47;8.50;;;22.20;99.90;;;;;;5057417;28;20497;-79
2021/07/23 09:20:26;;;;;;;9.60;8.40;;;22.40;99.90;;;;;;5057115;28;20782;-79
2021/07/23 09:22:54;;;;;;;12.00;9.17;;;22.20;99.90;;;;;;5055387;28;20871;-79
2021/07/23 09:25:42;;;;;;;10.50;8.70;;;22.10;99.90;;;;;;5055182;28;20497;-79
2021/07/23 09:28:24;;;;;;;9.00;8.10;;;22.20;99.90;;;;;;5054709;28;20427;-79
2021/07/23 09:30:52;;;;;;;10.80;9.50;;;22.30;99.90;;;;;;5055017;28;20469;-79
2021/07/23 09:33:25;;;;;;;11.87;9.83;;;22.00;99.90;;;;;;5054387;28;20450;-79
2021/07/23 09:35:54;;;;;;;11.90;9.53;;;22.20;99.90;;;;;;5054367;28;20864;-79
2021/07/23 09:38:22;;;;;;;11.70;10.20;;;22.00;99.90;;;;;;5055053;28;20536;-78
2021/07/23 09:40:49;;;;;;;13.93;9.70;;;22.00;99.90;;;;;;5055251;28;20520;-78
2021/07/23 09:43:32;;;;;;;9.87;8.20;;;22.10;99.90;;;;;;5056514;28;20446;-79
2021/07/23 09:46:24;;;;;;;14.30;8.63;;;22.20;99.90;;;;;;5056130;28;20466;-79
2021/07/23 09:48:52;;;;;;;13.00;9.37;;;22.30;99.90;;;;;;5060411;28;20427;-79
2021/07/23 09:51:22;;;;;;;15.53;10.87;;;22.60;99.90;;;;;;5061822;28;20495;-79
2021/07/23 09:53:49;;;;;;;14.03;10.70;;;22.70;99.90;;;;;;5060685;28;20441;-79
2021/07/23 09:56:16;;;;;;;14.97;10.90;;;22.70;99.90;;;;;;5061864;28;20465;-80
2021/07/23 09:58:46;;;;;;;12.93;10.07;;;22.60;99.90;;;;;;5061786;28;20503;-79
2021/07/23 10:01:19;;;;;;;13.00;9.53;;;22.60;99.90;;;;;;5062756;28;20801;-80
2021/07/23 10:03:48;;;;;;;11.80;9.90;;;22.70;99.90;;;;;;5062620;28;20433;-80
2021/07/23 10:06:21;;;;;;;10.67;9.57;;;22.50;99.90;;;;;;5065525;28;20470;-79
2021/07/23 10:08:55;;;;;;;10.53;9.43;;;22.60;99.90;;;;;;5063389;28;20431;-80
2021/07/23 10:11:22;;;;;;;14.83;8.93;;;22.70;99.90;;;;;;5062788;28;20442;-79
2021/07/23 10:13:53;;;;;;;16.17;10.13;;;22.80;99.90;;;;;;5064444;28;20446;-78
2021/07/23 10:16:20;;;;;;;11.43;9.60;;;23.00;99.90;;;;;;5075070;28;20462;-78
2021/07/23 10:18:47;;;;;;;13.63;9.67;;;22.80;99.90;;;;;;5066155;28;20521;-80
2021/07/23 10:21:13;;;;;;;15.17;10.17;;;22.50;99.90;;;;;;5064891;28;20477;-80
2021/07/23 10:23:44;;;;;;;9.20;8.30;;;22.60;99.90;;;;;;5063486;28;20492;-80
2021/07/23 10:26:12;;;;;;;11.47;9.57;;;22.80;99.90;;;;;;5063681;28;20466;-79
2021/07/23 10:28:57;;;;;;;11.50;9.60;;;23.00;99.90;;;;;;5063047;28;20932;-80
2021/07/23 10:31:46;;;;;;;10.33;9.27;;;23.00;99.90;;;;;;5063313;28;20464;-79
2021/07/23 10:34:32;;;;;;;16.53;10.50;;;23.10;99.90;;;;;;5063187;28;20554;-80
2021/07/23 10:36:59;;;;;;;13.63;9.80;;;23.10;99.90;;;;;;5061899;28;20770;-81
2021/07/23 10:39:26;;;;;;;11.90;10.70;;;23.10;99.90;;;;;;5063431;28;20449;-80
2021/07/23 10:42:29;;;;;;;10.23;9.13;;;22.90;99.90;;;;;;5068414;28;20890;-80
2021/07/23 10:44:57;;;;;;;11.03;9.90;;;22.80;99.90;;;;;;5044786;28;20470;-80
2021/07/23 10:47:45;;;;;;;10.63;9.30;;;22.70;99.90;;;;;;5062384;28;20438;-81
2021/07/23 10:50:16;;;;;;;11.37;9.53;;;22.90;99.90;;;;;;5062136;28;20452;-81
2021/07/23 10:52:42;;;;;;;15.27;11.47;;;23.20;99.90;;;;;;5066949;28;20422;-79
2021/07/23 10:55:16;;;;;;;14.23;9.67;;;23.20;99.90;;;;;;5064373;28;20458;-79
2021/07/23 10:57:43;;;;;;;11.70;8.87;;;23.20;99.90;;;;;;5065387;28;20535;-80
2021/07/23 11:00:12;;;;;;;14.53;8.97;;;23.30;99.90;;;;;;5062728;28;20488;-80
2021/07/23 11:02:46;;;;;;;10.83;8.90;;;23.30;99.90;;;;;;5062721;28;20504;-79
2021/07/23 11:05:21;;;;;;;12.57;8.93;;;23.40;99.90;;;;;;5065742;28;20465;-79
2021/07/23 11:07:47;;;;;;;10.60;9.10;;;23.30;99.90;;;;;;5069250;28;20442;-79
2021/07/23 11:10:20;;;;;;;11.80;10.33;;;23.30;99.90;;;;;;5065213;28;20474;-81
2021/07/23 11:12:47;;;;;;;13.47;10.23;;;23.40;99.90;;;;;;5064063;28;20430;-80
2021/07/23 11:15:15;;;;;;;10.13;8.80;;;23.30;99.90;;;;;;5063814;28;20474;-79
2021/07/23 11:17:53;;;;;;;11.23;9.50;;;23.30;99.90;;;;;;5063893;28;20481;-80
2021/07/23 11:20:28;;;;;;;10.50;8.93;;;23.20;99.90;;;;;;5073865;28;20437;-79
2021/07/23 11:22:55;;;;;;;11.23;10.03;;;23.20;99.90;;;;;;5065819;28;20434;-79
2021/07/23 11:25:24;;;;;;;11.23;10.23;;;23.30;99.90;;;;;;5063073;28;20513;-78
2021/07/23 11:27:53;;;;;;;12.10;10.00;;;23.40;99.90;;;;;;5061956;28;20473;-80
2021/07/23 11:30:23;;;;;;;9.60;8.70;;;23.50;99.90;;;;;;5061770;28;20462;-80
2021/07/23 11:32:53;;;;;;;15.37;10.73;;;23.60;99.90;;;;;;5061162;28;20441;-78
2021/07/23 11:35:20;;;;;;;11.07;8.70;;;23.70;99.90;;;;;;5085157;22;20485;-80
2021/07/23 11:37:47;;;;;;;12.87;9.87;;;23.80;99.90;;;;;;5066848;28;20478;-79
2021/07/23 11:40:16;;;;;;;15.20;9.57;;;23.90;99.90;;;;;;5066220;28;20516;-79
2021/07/23 11:42:45;;;;;;;13.67;10.60;;;23.90;99.90;;;;;;5066005;28;20504;-79
2021/07/23 11:45:13;;;;;;;11.87;10.27;;;23.90;99.90;;;;;;5061100;28;20488;-80
2021/07/23 11:47:42;;;;;;;11.90;10.13;;;24.00;99.90;;;;;;5059406;28;20449;-80
2021/07/23 11:50:11;;;;;;;8.97;8.17;;;24.00;99.90;;;;;;5058396;28;20894;-80
2021/07/23 11:52:38;;;;;;;12.00;9.07;;;23.90;99.90;;;;;;5063471;28;20470;-79
2021/07/23 11:55:07;;;;;;;10.63;9.57;;;24.00;99.90;;;;;;5078002;28;20431;-79
2021/07/23 11:57:39;;;;;;;11.53;9.90;;;24.00;99.90;;;;;;5067297;28;20585;-79
2021/07/23 12:00:06;;;;;;;11.30;10.13;;;24.00;99.90;;;;;;5058857;28;20431;-79
2021/07/23 12:02:32;;;;;;;10.73;9.50;;;24.10;99.90;;;;;;5057942;28;20499;-79
2021/07/23 12:05:06;;;;;;;13.70;9.57;;;24.70;99.90;;;;;;5056712;28;20492;-79
2021/07/23 12:07:33;;;;;;;9.67;8.73;;;24.20;99.90;;;;;;5056596;28;20544;-79
2021/07/23 12:10:01;;;;;;;17.00;9.93;;;24.10;99.90;;;;;;5056713;28;20537;-80
2021/07/23 12:12:28;;;;;;;11.18;9.57;;;24.10;99.90;;;;;;5056879;28;20453;-79
2021/07/23 12:15:01;;;;;;;9.70;8.60;;;24.10;99.90;;;;;;5057184;28;20666;-79
2021/07/23 12:17:28;;;;;;;11.47;10.27;;;24.10;99.90;;;;;;5056513;28;20435;-79
2021/07/23 12:19:55;;;;;;;14.10;9.80;;;24.10;99.90;;;;;;5057452;28;20982;-80
2021/07/23 12:22:23;;;;;;;13.03;9.60;;;24.30;99.90;;;;;;5057739;28;20453;-81
2021/07/23 12:24:50;;;;;;;10.40;9.30;;;24.30;99.90;;;;;;5063135;28;20446;-78
2021/07/23 12:27:17;;;;;;;12.90;9.87;;;24.50;99.90;;;;;;5061746;28;20820;-79
2021/07/23 12:29:44;;;;;;;9.87;8.83;;;24.40;99.90;;;;;;5057477;28;20519;-79
2021/07/23 12:32:14;;;;;;;14.10;8.90;;;24.20;99.90;;;;;;5057930;28;20447;-80
2021/07/23 12:34:42;;;;;;;10.57;9.50;;;24.20;99.90;;;;;;5057996;28;20439;-80